sensor_id;sensor_type;location;lat;lon;timestamp;pressure;altitude;pressure_sealevel;temperature
21336;BMP180;69435;52.670;13.544;2023-06-26T00:00:30;100969.00;;;22.80
21336;BMP180;69435;52.670;13.544;2023-06-26T00:02:55;100968.00;;;22.90
21336;BMP180;69435;52.670;13.544;2023-06-26T00:05:21;100956.00;;;22.90
21336;BMP180;69435;52.670;13.544;2023-06-26T00:07:47;100959.00;;;22.90
21336;BMP180;69435;52.670;13.544;2023-06-26T00:10:16;100959.00;;;22.90
21336;BMP180;69435;52.670;13.544;2023-06-26T00:12:41;100952.00;;;22.90
21336;BMP180;69435;52.670;13.544;2023-06-26T00:15:08;100949.00;;;22.90
21336;BMP180;69435;52.670;13.544;2023-06-26T00:17:33;100946.00;;;22.90
21336;BMP180;69435;52.670;13.544;2023-06-26T00:20:03;100960.00;;;22.80
21336;BMP180;69435;52.670;13.544;2023-06-26T00:22:30;100959.00;;;22.90
21336;BMP180;69435;52.670;13.544;2023-06-26T00:24:56;100928.00;;;22.90
21336;BMP180;69435;52.670;13.544;2023-06-26T00:27:22;100961.00;;;22.90
21336;BMP180;69435;52.670;13.544;2023-06-26T00:29:48;100957.00;;;22.90
21336;BMP180;69435;52.670;13.544;2023-06-26T00:32:14;100956.00;;;22.90
21336;BMP180;69435;52.670;13.544;2023-06-26T00:34:40;100948.00;;;23.00
21336;BMP180;69435;52.670;13.544;2023-06-26T00:37:05;100931.00;;;23.00
21336;BMP180;69435;52.670;13.544;2023-06-26T00:39:31;100941.00;;;23.00
21336;BMP180;69435;52.670;13.544;2023-06-26T00:41:57;100941.00;;;23.00
21336;BMP180;69435;52.670;13.544;2023-06-26T00:44:23;100922.00;;;23.00
21336;BMP180;69435;52.670;13.544;2023-06-26T00:46:50;100952.00;;;23.00
21336;BMP180;69435;52.670;13.544;2023-06-26T00:49:16;100939.00;;;23.00
21336;BMP180;69435;52.670;13.544;2023-06-26T00:51:43;100927.00;;;23.00
21336;BMP180;69435;52.670;13.544;2023-06-26T00:54:09;100940.00;;;23.00
21336;BMP180;69435;52.670;13.544;2023-06-26T00:56:35;100918.00;;;23.00
21336;BMP180;69435;52.670;13.544;2023-06-26T00:59:02;100948.00;;;23.00
21336;BMP180;69435;52.670;13.544;2023-06-26T01:01:28;100949.00;;;23.00
21336;BMP180;69435;52.670;13.544;2023-06-26T01:03:54;100926.00;;;23.00
21336;BMP180;69435;52.670;13.544;2023-06-26T01:06:23;100926.00;;;22.90
21336;BMP180;69435;52.670;13.544;2023-06-26T01:08:50;100934.00;;;22.90
21336;BMP180;69435;52.670;13.544;2023-06-26T01:11:17;100928.00;;;22.90
21336;BMP180;69435;52.670;13.544;2023-06-26T01:13:44;100924.00;;;22.90
21336;BMP180;69435;52.670;13.544;2023-06-26T01:16:14;100917.00;;;22.80
21336;BMP180;69435;52.670;13.544;2023-06-26T01:18:41;100912.00;;;22.80
21336;BMP180;69435;52.670;13.544;2023-06-26T01:21:10;100927.00;;;22.80
21336;BMP180;69435;52.670;13.544;2023-06-26T01:23:56;100931.00;;;22.80
21336;BMP180;69435;52.670;13.544;2023-06-26T01:26:26;100925.00;;;22.80
21336;BMP180;69435;52.670;13.544;2023-06-26T01:28:54;100902.00;;;22.80
21336;BMP180;69435;52.670;13.544;2023-06-26T01:31:23;100913.00;;;22.80
21336;BMP180;69435;52.670;13.544;2023-06-26T01:33:50;100919.00;;;22.80
21336;BMP180;69435;52.670;13.544;2023-06-26T01:36:16;100908.00;;;22.80
21336;BMP180;69435;52.670;13.544;2023-06-26T01:38:42;100900.00;;;22.80
21336;BMP180;69435;52.670;13.544;2023-06-26T01:41:08;100916.00;;;22.90
21336;BMP180;69435;52.670;13.544;2023-06-26T01:46:21;100906.00;;;22.90
21336;BMP180;69435;52.670;13.544;2023-06-26T01:49:35;100909.00;;;23.00
21336;BMP180;69435;52.670;13.544;2023-06-26T01:52:30;100907.00;;;23.00
21336;BMP180;69435;52.670;13.544;2023-06-26T01:55:32;100908.00;;;23.00
21336;BMP180;69435;52.670;13.544;2023-06-26T01:58:02;100892.00;;;22.90
21336;BMP180;69435;52.670;13.544;2023-06-26T02:00:29;100908.00;;;22.90
21336;BMP180;69435;52.670;13.544;2023-06-26T02:02:55;100890.00;;;23.00
21336;BMP180;69435;52.670;13.544;2023-06-26T02:05:23;100902.00;;;23.00
21336;BMP180;69435;52.670;13.544;2023-06-26T02:07:49;100902.00;;;23.00
21336;BMP180;69435;52.670;13.544;2023-06-26T02:10:17;100882.00;;;23.00
21336;BMP180;69435;52.670;13.544;2023-06-26T02:12:43;100900.00;;;23.00
21336;BMP180;69435;52.670;13.544;2023-06-26T02:15:09;100887.00;;;23.00
21336;BMP180;69435;52.670;13.544;2023-06-26T02:17:35;100881.00;;;23.00
21336;BMP180;69435;52.670;13.544;2023-06-26T02:20:01;100890.00;;;22.90
21336;BMP180;69435;52.670;13.544;2023-06-26T02:22:26;100887.00;;;22.90
21336;BMP180;69435;52.670;13.544;2023-06-26T02:24:54;100898.00;;;23.00
21336;BMP180;69435;52.670;13.544;2023-06-26T02:27:20;100889.00;;;23.00
21336;BMP180;69435;52.670;13.544;2023-06-26T02:29:47;100879.00;;;23.00
21336;BMP180;69435;52.670;13.544;2023-06-26T02:32:12;100866.00;;;23.00
21336;BMP180;69435;52.670;13.544;2023-06-26T02:34:38;100873.00;;;23.00
21336;BMP180;69435;52.670;13.544;2023-06-26T02:37:04;100870.00;;;23.00
21336;BMP180;69435;52.670;13.544;2023-06-26T02:39:34;100894.00;;;23.00
21336;BMP180;69435;52.670;13.544;2023-06-26T02:42:00;100870.00;;;23.00
21336;BMP180;69435;52.670;13.544;2023-06-26T02:44:26;100878.00;;;23.10
21336;BMP180;69435;52.670;13.544;2023-06-26T02:46:51;100873.00;;;23.00
21336;BMP180;69435;52.670;13.544;2023-06-26T02:49:18;100880.00;;;23.10
21336;BMP180;69435;52.670;13.544;2023-06-26T02:51:44;100871.00;;;23.10
21336;BMP180;69435;52.670;13.544;2023-06-26T02:54:09;100884.00;;;23.10
21336;BMP180;69435;52.670;13.544;2023-06-26T02:56:35;100879.00;;;23.10
21336;BMP180;69435;52.670;13.544;2023-06-26T02:59:01;100855.00;;;23.20
21336;BMP180;69435;52.670;13.544;2023-06-26T03:01:26;100866.00;;;23.20
21336;BMP180;69435;52.670;13.544;2023-06-26T03:03:52;100866.00;;;23.20
21336;BMP180;69435;52.670;13.544;2023-06-26T03:06:18;100869.00;;;23.20
21336;BMP180;69435;52.670;13.544;2023-06-26T03:08:44;100872.00;;;23.20
21336;BMP180;69435;52.670;13.544;2023-06-26T03:11:10;100865.00;;;23.30
21336;BMP180;69435;52.670;13.544;2023-06-26T03:13:37;100867.00;;;23.30
21336;BMP180;69435;52.670;13.544;2023-06-26T03:16:04;100864.00;;;23.30
21336;BMP180;69435;52.670;13.544;2023-06-26T03:18:30;100851.00;;;23.30
21336;BMP180;69435;52.670;13.544;2023-06-26T03:20:56;100869.00;;;23.30
21336;BMP180;69435;52.670;13.544;2023-06-26T03:23:23;100863.00;;;23.30
21336;BMP180;69435;52.670;13.544;2023-06-26T03:25:50;100851.00;;;23.30
21336;BMP180;69435;52.670;13.544;2023-06-26T03:28:16;100848.00;;;23.30
21336;BMP180;69435;52.670;13.544;2023-06-26T03:30:42;100838.00;;;23.30
21336;BMP180;69435;52.670;13.544;2023-06-26T03:33:08;100854.00;;;23.30
21336;BMP180;69435;52.670;13.544;2023-06-26T03:35:34;100818.00;;;23.30
21336;BMP180;69435;52.670;13.544;2023-06-26T03:38:01;100789.00;;;23.30
21336;BMP180;69435;52.670;13.544;2023-06-26T03:40:27;100863.00;;;23.30
21336;BMP180;69435;52.670;13.544;2023-06-26T03:42:53;100843.00;;;23.30
21336;BMP180;69435;52.670;13.544;2023-06-26T03:45:18;100834.00;;;23.30
21336;BMP180;69435;52.670;13.544;2023-06-26T03:47:46;100853.00;;;23.30
21336;BMP180;69435;52.670;13.544;2023-06-26T03:50:15;100849.00;;;23.20
21336;BMP180;69435;52.670;13.544;2023-06-26T03:52:41;100811.00;;;23.20
21336;BMP180;69435;52.670;13.544;2023-06-26T03:55:07;100848.00;;;23.20
21336;BMP180;69435;52.670;13.544;2023-06-26T03:57:33;100851.00;;;23.20
21336;BMP180;69435;52.670;13.544;2023-06-26T03:59:59;100838.00;;;23.20
21336;BMP180;69435;52.670;13.544;2023-06-26T04:02:25;100857.00;;;23.10
21336;BMP180;69435;52.670;13.544;2023-06-26T04:04:51;100847.00;;;23.10
21336;BMP180;69435;52.670;13.544;2023-06-26T04:07:21;100835.00;;;23.20
21336;BMP180;69435;52.670;13.544;2023-06-26T04:09:47;100832.00;;;23.10
21336;BMP180;69435;52.670;13.544;2023-06-26T04:12:13;100835.00;;;23.10
21336;BMP180;69435;52.670;13.544;2023-06-26T04:14:47;100838.00;;;23.10
21336;BMP180;69435;52.670;13.544;2023-06-26T04:17:13;100832.00;;;23.20
21336;BMP180;69435;52.670;13.544;2023-06-26T04:19:39;100809.00;;;23.20
21336;BMP180;69435;52.670;13.544;2023-06-26T04:22:05;100824.00;;;23.30
21336;BMP180;69435;52.670;13.544;2023-06-26T04:24:31;100844.00;;;23.30
21336;BMP180;69435;52.670;13.544;2023-06-26T04:26:56;100839.00;;;23.40
21336;BMP180;69435;52.670;13.544;2023-06-26T04:29:25;100830.00;;;23.40
21336;BMP180;69435;52.670;13.544;2023-06-26T04:31:54;100853.00;;;23.50
21336;BMP180;69435;52.670;13.544;2023-06-26T04:34:27;100829.00;;;23.60
21336;BMP180;69435;52.670;13.544;2023-06-26T04:36:54;100847.00;;;23.60
21336;BMP180;69435;52.670;13.544;2023-06-26T04:39:20;100849.00;;;23.70
21336;BMP180;69435;52.670;13.544;2023-06-26T04:41:46;100845.00;;;23.70
21336;BMP180;69435;52.670;13.544;2023-06-26T04:44:12;100853.00;;;23.80
21336;BMP180;69435;52.670;13.544;2023-06-26T04:46:38;100838.00;;;23.80
21336;BMP180;69435;52.670;13.544;2023-06-26T04:49:10;100838.00;;;23.90
21336;BMP180;69435;52.670;13.544;2023-06-26T04:51:36;100828.00;;;24.00
21336;BMP180;69435;52.670;13.544;2023-06-26T04:54:10;100844.00;;;24.10
21336;BMP180;69435;52.670;13.544;2023-06-26T04:56:37;100836.00;;;24.10
21336;BMP180;69435;52.670;13.544;2023-06-26T04:59:05;100827.00;;;24.20
21336;BMP180;69435;52.670;13.544;2023-06-26T05:01:31;100804.00;;;24.30
21336;BMP180;69435;52.670;13.544;2023-06-26T05:04:01;100815.00;;;24.40
21336;BMP180;69435;52.670;13.544;2023-06-26T05:06:31;100824.00;;;24.40
21336;BMP180;69435;52.670;13.544;2023-06-26T05:08:57;100820.00;;;24.50
21336;BMP180;69435;52.670;13.544;2023-06-26T05:11:25;100834.00;;;24.60
21336;BMP180;69435;52.670;13.544;2023-06-26T05:13:51;100832.00;;;24.70
21336;BMP180;69435;52.670;13.544;2023-06-26T05:16:17;100827.00;;;24.70
21336;BMP180;69435;52.670;13.544;2023-06-26T05:18:42;100812.00;;;24.80
21336;BMP180;69435;52.670;13.544;2023-06-26T05:21:09;100821.00;;;24.90
21336;BMP180;69435;52.670;13.544;2023-06-26T05:23:35;100815.00;;;25.00
21336;BMP180;69435;52.670;13.544;2023-06-26T05:26:07;100815.00;;;25.10
21336;BMP180;69435;52.670;13.544;2023-06-26T05:28:33;100812.00;;;25.20
21336;BMP180;69435;52.670;13.544;2023-06-26T05:31:04;100819.00;;;25.30
21336;BMP180;69435;52.670;13.544;2023-06-26T05:33:34;100796.00;;;25.40
21336;BMP180;69435;52.670;13.544;2023-06-26T05:36:04;100816.00;;;25.60
21336;BMP180;69435;52.670;13.544;2023-06-26T05:38:31;100801.00;;;25.60
21336;BMP180;69435;52.670;13.544;2023-06-26T05:40:58;100796.00;;;25.70
21336;BMP180;69435;52.670;13.544;2023-06-26T05:43:25;100782.00;;;25.80
21336;BMP180;69435;52.670;13.544;2023-06-26T05:45:51;100776.00;;;26.00
21336;BMP180;69435;52.670;13.544;2023-06-26T05:48:18;100786.00;;;26.10
21336;BMP180;69435;52.670;13.544;2023-06-26T05:50:44;100787.00;;;26.20
21336;BMP180;69435;52.670;13.544;2023-06-26T05:53:17;100797.00;;;26.30
21336;BMP180;69435;52.670;13.544;2023-06-26T05:55:43;100769.00;;;26.40
21336;BMP180;69435;52.670;13.544;2023-06-26T05:58:11;100791.00;;;26.50
21336;BMP180;69435;52.670;13.544;2023-06-26T06:00:39;100773.00;;;26.60
21336;BMP180;69435;52.670;13.544;2023-06-26T06:03:06;100775.00;;;26.70
21336;BMP180;69435;52.670;13.544;2023-06-26T06:05:31;100768.00;;;26.80
21336;BMP180;69435;52.670;13.544;2023-06-26T06:07:57;100759.00;;;26.90
21336;BMP180;69435;52.670;13.544;2023-06-26T06:10:23;100768.00;;;26.90
21336;BMP180;69435;52.670;13.544;2023-06-26T06:12:49;100775.00;;;27.10
21336;BMP180;69435;52.670;13.544;2023-06-26T06:15:14;100755.00;;;27.10
21336;BMP180;69435;52.670;13.544;2023-06-26T06:17:40;100759.00;;;27.20
21336;BMP180;69435;52.670;13.544;2023-06-26T06:20:06;100763.00;;;27.30
21336;BMP180;69435;52.670;13.544;2023-06-26T06:22:35;100773.00;;;27.40
21336;BMP180;69435;52.670;13.544;2023-06-26T06:25:00;100770.00;;;27.40
21336;BMP180;69435;52.670;13.544;2023-06-26T06:27:27;100768.00;;;27.50
21336;BMP180;69435;52.670;13.544;2023-06-26T06:29:53;100774.00;;;27.60
21336;BMP180;69435;52.670;13.544;2023-06-26T06:32:18;100772.00;;;27.70
21336;BMP180;69435;52.670;13.544;2023-06-26T06:34:44;100760.00;;;27.70
21336;BMP180;69435;52.670;13.544;2023-06-26T06:37:10;100768.00;;;27.80
21336;BMP180;69435;52.670;13.544;2023-06-26T06:39:36;100758.00;;;27.90
21336;BMP180;69435;52.670;13.544;2023-06-26T06:42:01;100760.00;;;28.00
21336;BMP180;69435;52.670;13.544;2023-06-26T06:44:27;100769.00;;;28.00
21336;BMP180;69435;52.670;13.544;2023-06-26T06:46:53;100754.00;;;28.10
21336;BMP180;69435;52.670;13.544;2023-06-26T06:49:19;100752.00;;;28.10
21336;BMP180;69435;52.670;13.544;2023-06-26T06:51:44;100754.00;;;28.30
21336;BMP180;69435;52.670;13.544;2023-06-26T06:54:10;100761.00;;;28.40
21336;BMP180;69435;52.670;13.544;2023-06-26T06:56:36;100757.00;;;28.40
21336;BMP180;69435;52.670;13.544;2023-06-26T06:59:02;100747.00;;;28.50
21336;BMP180;69435;52.670;13.544;2023-06-26T07:01:28;100759.00;;;28.60
21336;BMP180;69435;52.670;13.544;2023-06-26T07:03:54;100727.00;;;28.70
21336;BMP180;69435;52.670;13.544;2023-06-26T07:06:21;100748.00;;;28.80
21336;BMP180;69435;52.670;13.544;2023-06-26T07:08:47;100753.00;;;29.10
21336;BMP180;69435;52.670;13.544;2023-06-26T07:11:12;100740.00;;;29.50
21336;BMP180;69435;52.670;13.544;2023-06-26T07:13:38;100735.00;;;30.30
21336;BMP180;69435;52.670;13.544;2023-06-26T07:16:04;100719.00;;;31.20
21336;BMP180;69435;52.670;13.544;2023-06-26T07:18:31;100741.00;;;32.30
21336;BMP180;69435;52.670;13.544;2023-06-26T07:20:57;100751.00;;;33.40
21336;BMP180;69435;52.670;13.544;2023-06-26T07:23:23;100734.00;;;34.50
21336;BMP180;69435;52.670;13.544;2023-06-26T07:25:49;100744.00;;;35.60
21336;BMP180;69435;52.670;13.544;2023-06-26T07:28:14;100738.00;;;36.60
21336;BMP180;69435;52.670;13.544;2023-06-26T07:30:41;100751.00;;;37.60
21336;BMP180;69435;52.670;13.544;2023-06-26T07:33:07;100746.00;;;38.60
21336;BMP180;69435;52.670;13.544;2023-06-26T07:35:34;100749.00;;;39.20
21336;BMP180;69435;52.670;13.544;2023-06-26T07:37:59;100756.00;;;39.60
21336;BMP180;69435;52.670;13.544;2023-06-26T07:40:26;100750.00;;;40.00
21336;BMP180;69435;52.670;13.544;2023-06-26T07:42:52;100741.00;;;40.40
21336;BMP180;69435;52.670;13.544;2023-06-26T07:45:19;100755.00;;;40.50
21336;BMP180;69435;52.670;13.544;2023-06-26T07:47:45;100737.00;;;40.30
21336;BMP180;69435;52.670;13.544;2023-06-26T07:50:11;100749.00;;;40.10
21336;BMP180;69435;52.670;13.544;2023-06-26T07:52:37;100731.00;;;40.10
21336;BMP180;69435;52.670;13.544;2023-06-26T07:55:03;100746.00;;;40.20
21336;BMP180;69435;52.670;13.544;2023-06-26T07:57:29;100727.00;;;40.40
21336;BMP180;69435;52.670;13.544;2023-06-26T07:59:55;100730.00;;;40.70
21336;BMP180;69435;52.670;13.544;2023-06-26T08:02:24;100743.00;;;41.10
21336;BMP180;69435;52.670;13.544;2023-06-26T08:04:50;100723.00;;;41.30
21336;BMP180;69435;52.670;13.544;2023-06-26T08:07:16;100740.00;;;41.40
21336;BMP180;69435;52.670;13.544;2023-06-26T08:09:42;100739.00;;;41.50
21336;BMP180;69435;52.670;13.544;2023-06-26T08:12:07;100717.00;;;41.70
21336;BMP180;69435;52.670;13.544;2023-06-26T08:14:33;100734.00;;;42.00
21336;BMP180;69435;52.670;13.544;2023-06-26T08:16:59;100719.00;;;42.40
21336;BMP180;69435;52.670;13.544;2023-06-26T08:19:25;100731.00;;;42.70
21336;BMP180;69435;52.670;13.544;2023-06-26T08:21:51;100736.00;;;42.90
21336;BMP180;69435;52.670;13.544;2023-06-26T08:24:17;100723.00;;;43.10
21336;BMP180;69435;52.670;13.544;2023-06-26T08:26:45;100741.00;;;43.30
21336;BMP180;69435;52.670;13.544;2023-06-26T08:29:12;100739.00;;;43.50
21336;BMP180;69435;52.670;13.544;2023-06-26T08:31:43;100741.00;;;43.80
21336;BMP180;69435;52.670;13.544;2023-06-26T08:34:09;100726.00;;;44.20
21336;BMP180;69435;52.670;13.544;2023-06-26T08:36:38;100735.00;;;44.60
21336;BMP180;69435;52.670;13.544;2023-06-26T08:39:04;100733.00;;;44.90
21336;BMP180;69435;52.670;13.544;2023-06-26T08:41:31;100724.00;;;45.00
21336;BMP180;69435;52.670;13.544;2023-06-26T08:43:57;100729.00;;;45.20
21336;BMP180;69435;52.670;13.544;2023-06-26T08:46:23;100733.00;;;45.30
21336;BMP180;69435;52.670;13.544;2023-06-26T08:48:55;100725.00;;;45.20
21336;BMP180;69435;52.670;13.544;2023-06-26T08:51:24;100732.00;;;45.20
21336;BMP180;69435;52.670;13.544;2023-06-26T08:53:59;100733.00;;;45.40
21336;BMP180;69435;52.670;13.544;2023-06-26T08:56:32;100716.00;;;45.50
21336;BMP180;69435;52.670;13.544;2023-06-26T08:59:00;100720.00;;;45.50
21336;BMP180;69435;52.670;13.544;2023-06-26T09:01:27;100714.00;;;45.40
21336;BMP180;69435;52.670;13.544;2023-06-26T09:03:54;100729.00;;;45.50
21336;BMP180;69435;52.670;13.544;2023-06-26T09:06:20;100725.00;;;45.80
21336;BMP180;69435;52.670;13.544;2023-06-26T09:08:47;100701.00;;;45.90
21336;BMP180;69435;52.670;13.544;2023-06-26T09:11:13;100711.00;;;45.90
21336;BMP180;69435;52.670;13.544;2023-06-26T09:13:40;100675.00;;;45.90
21336;BMP180;69435;52.670;13.544;2023-06-26T09:16:09;100714.00;;;45.70
21336;BMP180;69435;52.670;13.544;2023-06-26T09:18:35;100708.00;;;45.90
21336;BMP180;69435;52.670;13.544;2023-06-26T09:21:08;100695.00;;;46.00
21336;BMP180;69435;52.670;13.544;2023-06-26T09:23:35;100704.00;;;45.90
21336;BMP180;69435;52.670;13.544;2023-06-26T09:26:05;100694.00;;;46.00
21336;BMP180;69435;52.670;13.544;2023-06-26T09:28:35;100689.00;;;46.00
21336;BMP180;69435;52.670;13.544;2023-06-26T09:31:07;100700.00;;;46.10
21336;BMP180;69435;52.670;13.544;2023-06-26T09:33:35;100700.00;;;45.90
21336;BMP180;69435;52.670;13.544;2023-06-26T09:36:08;100693.00;;;45.90
21336;BMP180;69435;52.670;13.544;2023-06-26T09:38:43;100694.00;;;45.90
21336;BMP180;69435;52.670;13.544;2023-06-26T09:41:09;100688.00;;;45.80
21336;BMP180;69435;52.670;13.544;2023-06-26T09:43:51;100696.00;;;45.80
21336;BMP180;69435;52.670;13.544;2023-06-26T09:46:27;100668.00;;;45.70
21336;BMP180;69435;52.670;13.544;2023-06-26T09:49:11;100688.00;;;45.80
21336;BMP180;69435;52.670;13.544;2023-06-26T09:51:40;100678.00;;;45.60
21336;BMP180;69435;52.670;13.544;2023-06-26T09:54:08;100685.00;;;45.60
21336;BMP180;69435;52.670;13.544;2023-06-26T09:56:37;100682.00;;;45.50
21336;BMP180;69435;52.670;13.544;2023-06-26T09:59:05;100677.00;;;45.30
21336;BMP180;69435;52.670;13.544;2023-06-26T10:01:32;100675.00;;;45.20
21336;BMP180;69435;52.670;13.544;2023-06-26T10:03:58;100670.00;;;45.10
21336;BMP180;69435;52.670;13.544;2023-06-26T10:06:39;100671.00;;;45.30
21336;BMP180;69435;52.670;13.544;2023-06-26T10:09:07;100667.00;;;45.10
21336;BMP180;69435;52.670;13.544;2023-06-26T10:11:56;100670.00;;;45.10
21336;BMP180;69435;52.670;13.544;2023-06-26T10:14:35;100651.00;;;44.80
21336;BMP180;69435;52.670;13.544;2023-06-26T10:17:07;100633.00;;;44.60
21336;BMP180;69435;52.670;13.544;2023-06-26T10:19:38;100664.00;;;44.70
21336;BMP180;69435;52.670;13.544;2023-06-26T10:22:05;100653.00;;;44.80
21336;BMP180;69435;52.670;13.544;2023-06-26T10:24:35;100651.00;;;44.80
21336;BMP180;69435;52.670;13.544;2023-06-26T10:27:21;100651.00;;;45.10
21336;BMP180;69435;52.670;13.544;2023-06-26T10:30:05;100633.00;;;45.40
21336;BMP180;69435;52.670;13.544;2023-06-26T10:32:32;100641.00;;;45.50
21336;BMP180;69435;52.670;13.544;2023-06-26T10:34:59;100637.00;;;45.80
21336;BMP180;69435;52.670;13.544;2023-06-26T10:37:49;100634.00;;;45.90
21336;BMP180;69435;52.670;13.544;2023-06-26T10:40:25;100632.00;;;45.60
21336;BMP180;69435;52.670;13.544;2023-06-26T10:42:51;100625.00;;;45.40
21336;BMP180;69435;52.670;13.544;2023-06-26T10:45:20;100631.00;;;45.30
21336;BMP180;69435;52.670;13.544;2023-06-26T10:47:48;100607.00;;;45.30
21336;BMP180;69435;52.670;13.544;2023-06-26T10:50:28;100622.00;;;45.40
21336;BMP180;69435;52.670;13.544;2023-06-26T10:53:23;100619.00;;;45.40
21336;BMP180;69435;52.670;13.544;2023-06-26T10:56:04;100608.00;;;45.00
21336;BMP180;69435;52.670;13.544;2023-06-26T11:03:44;100616.00;;;44.10
21336;BMP180;69435;52.670;13.544;2023-06-26T11:06:17;100604.00;;;44.00
21336;BMP180;69435;52.670;13.544;2023-06-26T11:08:53;100606.00;;;43.90
21336;BMP180;69435;52.670;13.544;2023-06-26T11:11:21;100569.00;;;43.80
21336;BMP180;69435;52.670;13.544;2023-06-26T11:13:48;100604.00;;;43.70
21336;BMP180;69435;52.670;13.544;2023-06-26T11:16:15;100572.00;;;43.50
21336;BMP180;69435;52.670;13.544;2023-06-26T11:18:42;100602.00;;;43.40
21336;BMP180;69435;52.670;13.544;2023-06-26T11:21:13;100589.00;;;43.50
21336;BMP180;69435;52.670;13.544;2023-06-26T11:23:47;100589.00;;;43.40
21336;BMP180;69435;52.670;13.544;2023-06-26T11:26:20;100587.00;;;43.40
21336;BMP180;69435;52.670;13.544;2023-06-26T11:28:55;100579.00;;;43.40
21336;BMP180;69435;52.670;13.544;2023-06-26T11:31:32;100586.00;;;43.30
21336;BMP180;69435;52.670;13.544;2023-06-26T11:34:07;100583.00;;;43.20
21336;BMP180;69435;52.670;13.544;2023-06-26T11:36:34;100582.00;;;42.80
21336;BMP180;69435;52.670;13.544;2023-06-26T11:39:06;100567.00;;;42.70
21336;BMP180;69435;52.670;13.544;2023-06-26T11:41:37;100564.00;;;42.60
21336;BMP180;69435;52.670;13.544;2023-06-26T11:44:06;100563.00;;;42.40
21336;BMP180;69435;52.670;13.544;2023-06-26T11:46:34;100554.00;;;42.10
21336;BMP180;69435;52.670;13.544;2023-06-26T11:49:02;100539.00;;;41.80
21336;BMP180;69435;52.670;13.544;2023-06-26T11:51:29;100543.00;;;41.70
21336;BMP180;69435;52.670;13.544;2023-06-26T11:53:56;100549.00;;;41.70
21336;BMP180;69435;52.670;13.544;2023-06-26T11:56:21;100537.00;;;41.50
21336;BMP180;69435;52.670;13.544;2023-06-26T11:59:06;100533.00;;;41.50
21336;BMP180;69435;52.670;13.544;2023-06-26T12:04:03;100528.00;;;41.30
21336;BMP180;69435;52.670;13.544;2023-06-26T12:06:35;100520.00;;;41.20
21336;BMP180;69435;52.670;13.544;2023-06-26T12:09:04;100510.00;;;41.00
21336;BMP180;69435;52.670;13.544;2023-06-26T12:11:32;100512.00;;;41.00
21336;BMP180;69435;52.670;13.544;2023-06-26T12:13:59;100501.00;;;40.90
21336;BMP180;69435;52.670;13.544;2023-06-26T12:16:29;100486.00;;;40.90
21336;BMP180;69435;52.670;13.544;2023-06-26T12:19:08;100491.00;;;40.90
21336;BMP180;69435;52.670;13.544;2023-06-26T12:24:01;100501.00;;;40.40
21336;BMP180;69435;52.670;13.544;2023-06-26T12:26:28;100478.00;;;40.10
21336;BMP180;69435;52.670;13.544;2023-06-26T12:29:06;100475.00;;;39.90
21336;BMP180;69435;52.670;13.544;2023-06-26T12:31:33;100488.00;;;39.50
21336;BMP180;69435;52.670;13.544;2023-06-26T12:34:01;100504.00;;;39.30
21336;BMP180;69435;52.670;13.544;2023-06-26T12:36:28;100476.00;;;39.00
21336;BMP180;69435;52.670;13.544;2023-06-26T12:38:54;100471.00;;;38.90
21336;BMP180;69435;52.670;13.544;2023-06-26T12:41:24;100462.00;;;38.90
21336;BMP180;69435;52.670;13.544;2023-06-26T12:43:55;100464.00;;;38.90
21336;BMP180;69435;52.670;13.544;2023-06-26T12:46:35;100455.00;;;38.90
21336;BMP180;69435;52.670;13.544;2023-06-26T12:49:01;100437.00;;;38.80
21336;BMP180;69435;52.670;13.544;2023-06-26T12:51:28;100450.00;;;38.70
21336;BMP180;69435;52.670;13.544;2023-06-26T12:53:54;100435.00;;;38.50
21336;BMP180;69435;52.670;13.544;2023-06-26T12:56:20;100435.00;;;38.30
21336;BMP180;69435;52.670;13.544;2023-06-26T12:58:45;100424.00;;;38.30
21336;BMP180;69435;52.670;13.544;2023-06-26T13:01:11;100435.00;;;38.40
21336;BMP180;69435;52.670;13.544;2023-06-26T13:03:39;100423.00;;;38.50
21336;BMP180;69435;52.670;13.544;2023-06-26T13:06:05;100397.00;;;38.60
21336;BMP180;69435;52.670;13.544;2023-06-26T13:08:31;100427.00;;;38.40
21336;BMP180;69435;52.670;13.544;2023-06-26T13:10:57;100402.00;;;38.20
21336;BMP180;69435;52.670;13.544;2023-06-26T13:13:23;100408.00;;;38.10
21336;BMP180;69435;52.670;13.544;2023-06-26T13:15:49;100395.00;;;37.90
21336;BMP180;69435;52.670;13.544;2023-06-26T13:18:15;100399.00;;;37.80
21336;BMP180;69435;52.670;13.544;2023-06-26T13:20:41;100392.00;;;37.60
21336;BMP180;69435;52.670;13.544;2023-06-26T13:23:06;100392.00;;;37.40
21336;BMP180;69435;52.670;13.544;2023-06-26T13:25:33;100396.00;;;37.20
21336;BMP180;69435;52.670;13.544;2023-06-26T13:27:59;100391.00;;;37.10
21336;BMP180;69435;52.670;13.544;2023-06-26T13:30:24;100393.00;;;36.80
21336;BMP180;69435;52.670;13.544;2023-06-26T13:32:50;100378.00;;;36.70
21336;BMP180;69435;52.670;13.544;2023-06-26T13:35:16;100364.00;;;36.60
21336;BMP180;69435;52.670;13.544;2023-06-26T13:37:42;100372.00;;;36.50
21336;BMP180;69435;52.670;13.544;2023-06-26T13:40:09;100348.00;;;36.40
21336;BMP180;69435;52.670;13.544;2023-06-26T13:42:35;100346.00;;;36.40
21336;BMP180;69435;52.670;13.544;2023-06-26T13:45:03;100341.00;;;36.30
21336;BMP180;69435;52.670;13.544;2023-06-26T13:47:30;100326.00;;;36.20
21336;BMP180;69435;52.670;13.544;2023-06-26T13:49:56;100345.00;;;36.10
21336;BMP180;69435;52.670;13.544;2023-06-26T13:52:22;100335.00;;;35.90
21336;BMP180;69435;52.670;13.544;2023-06-26T13:54:47;100304.00;;;35.80
21336;BMP180;69435;52.670;13.544;2023-06-26T13:57:13;100325.00;;;35.60
21336;BMP180;69435;52.670;13.544;2023-06-26T13:59:39;100324.00;;;35.50
21336;BMP180;69435;52.670;13.544;2023-06-26T14:02:06;100325.00;;;35.50